createdAt,value
2018-11-01T00:00:02.002Z,23.78
2018-11-01T00:02:30.094Z,23.77
2018-11-01T00:04:58.179Z,23.75
2018-11-01T00:07:26.244Z,23.73
2018-11-01T00:09:54.306Z,23.70
2018-11-01T00:12:22.345Z,23.68
2018-11-01T00:14:50.435Z,23.66
2018-11-01T00:17:18.498Z,23.64
2018-11-01T00:19:46.557Z,23.61
2018-11-01T00:22:14.583Z,23.59
2018-11-01T00:24:42.640Z,23.58
2018-11-01T00:27:10.678Z,23.55
2018-11-01T00:29:38.744Z,23.52
2018-11-01T00:32:06.835Z,23.50
2018-11-01T00:34:34.942Z,23.48
2018-11-01T00:37:02.996Z,23.46
2018-11-01T00:39:31.038Z,23.43
2018-11-01T00:41:59.141Z,23.41
2018-11-01T00:44:27.184Z,23.40
2018-11-01T00:46:55.254Z,23.38
2018-11-01T00:49:23.409Z,23.37
2018-11-01T00:51:51.478Z,23.34
2018-11-01T00:54:19.511Z,23.32
2018-11-01T00:56:47.678Z,23.30
2018-11-01T00:59:15.707Z,23.28
2018-11-01T01:01:43.790Z,23.26
2018-11-01T01:04:11.833Z,23.25
2018-11-01T01:06:39.911Z,23.22
2018-11-01T01:09:10.876Z,23.20
2018-11-01T01:11:39.170Z,23.19
2018-11-01T01:14:07.663Z,23.19
2018-11-01T01:16:35.850Z,23.17
2018-11-01T01:19:04.247Z,23.16
2018-11-01T01:21:32.228Z,23.12
2018-11-01T01:24:00.319Z,23.11
2018-11-01T01:26:28.391Z,23.10
2018-11-01T01:28:57.382Z,23.08
2018-11-01T01:31:25.462Z,23.08
2018-11-01T01:33:53.653Z,23.05
2018-11-01T01:36:21.764Z,23.04
2018-11-01T01:38:49.793Z,23.02
2018-11-01T01:41:17.872Z,23.00
2018-11-01T01:43:45.935Z,22.98
2018-11-01T01:46:14.096Z,22.98
2018-11-01T01:48:42.133Z,22.95
2018-11-01T01:51:10.211Z,22.93
2018-11-01T01:53:38.258Z,22.92
2018-11-01T01:56:12.135Z,22.92
2018-11-01T01:58:40.255Z,22.89
2018-11-01T02:01:08.421Z,22.87
2018-11-01T02:03:37.135Z,22.86
2018-11-01T02:06:05.310Z,22.84
2018-11-01T02:08:33.436Z,22.83
2018-11-01T02:11:01.630Z,22.82
2018-11-01T02:13:29.803Z,22.80
2018-11-01T02:15:57.993Z,22.78
2018-11-01T02:18:26.158Z,22.77
2018-11-01T02:20:54.230Z,22.75
2018-11-01T02:23:22.329Z,22.74
2018-11-01T02:25:50.460Z,22.73
2018-11-01T02:28:19.142Z,22.71
2018-11-01T02:30:47.295Z,22.69
2018-11-01T02:33:15.342Z,22.67
2018-11-01T02:35:43.440Z,22.66
2018-11-01T02:38:11.609Z,22.64
2018-11-01T02:40:39.572Z,22.63
2018-11-01T02:43:07.655Z,22.61
2018-11-01T02:45:35.708Z,22.60
2018-11-01T02:48:03.756Z,22.57
2018-11-01T02:50:31.837Z,22.56
2018-11-01T02:52:59.884Z,22.55
2018-11-01T02:55:27.976Z,22.53
2018-11-01T02:57:56.044Z,22.51
2018-11-01T03:00:24.129Z,22.49
2018-11-01T03:02:52.185Z,22.48
2018-11-01T03:05:20.264Z,22.47
2018-11-01T03:07:48.332Z,22.45
2018-11-01T03:10:16.402Z,22.43
2018-11-01T03:12:44.495Z,22.41
2018-11-01T03:15:13.659Z,22.41
2018-11-01T03:17:42.627Z,22.39
2018-11-01T03:20:11.533Z,22.37
2018-11-01T03:22:39.608Z,22.36
2018-11-01T03:25:08.225Z,22.34
2018-11-01T03:27:36.349Z,22.34
2018-11-01T03:30:04.953Z,22.32
2018-11-01T03:32:33.052Z,22.30
2018-11-01T03:35:01.229Z,22.29
2018-11-01T03:37:29.297Z,22.28
2018-11-01T03:39:57.398Z,22.27
2018-11-01T03:42:25.484Z,22.26
2018-11-01T03:44:53.592Z,22.25
2018-11-01T03:47:21.708Z,22.23
2018-11-01T03:49:49.784Z,22.22
2018-11-01T03:52:17.866Z,22.19
2018-11-01T03:54:45.953Z,22.18
2018-11-01T03:57:14.036Z,22.17
2018-11-01T03:59:42.140Z,22.16
2018-11-01T04:02:10.213Z,22.14
2018-11-01T04:04:38.300Z,22.13
2018-11-01T04:07:06.636Z,22.11
2018-11-01T04:09:34.700Z,22.09
2018-11-01T04:12:02.776Z,22.08
2018-11-01T04:14:30.883Z,22.07
2018-11-01T04:16:59.047Z,22.06
2018-11-01T04:19:27.057Z,22.05
2018-11-01T04:22:03.593Z,22.03
2018-11-01T04:24:31.938Z,22.01
2018-11-01T04:27:00.058Z,22.00
2018-11-01T04:29:28.117Z,22.00
2018-11-01T04:31:56.172Z,21.99
2018-11-01T04:34:24.264Z,21.97
2018-11-01T04:36:52.368Z,21.96
2018-11-01T04:39:20.441Z,21.95
2018-11-01T04:41:48.504Z,21.94
2018-11-01T04:44:16.564Z,21.93
2018-11-01T04:46:44.693Z,21.93
2018-11-01T04:49:12.728Z,21.90
2018-11-01T04:51:40.779Z,21.89
2018-11-01T04:54:08.836Z,21.88
2018-11-01T04:56:36.892Z,21.86
2018-11-01T04:59:05.240Z,21.85
2018-11-01T05:01:33.308Z,21.84
2018-11-01T05:04:01.373Z,21.83
2018-11-01T05:06:29.425Z,21.82
2018-11-01T05:08:57.488Z,21.81
2018-11-01T05:11:25.545Z,21.79
2018-11-01T05:13:53.600Z,21.78
2018-11-01T05:16:21.647Z,21.75
2018-11-01T05:18:49.727Z,21.74
2018-11-01T05:21:17.788Z,21.74
2018-11-01T05:23:45.868Z,21.72
2018-11-01T05:26:13.954Z,21.71
2018-11-01T05:28:42.070Z,21.70
2018-11-01T05:31:10.148Z,21.68
2018-11-01T05:33:38.230Z,21.66
2018-11-01T05:36:06.509Z,21.65
2018-11-01T05:38:34.588Z,21.66
2018-11-01T05:41:02.676Z,21.64
2018-11-01T05:43:30.764Z,21.63
2018-11-01T05:45:59.208Z,21.61
2018-11-01T05:48:27.325Z,21.60
2018-11-01T05:50:55.385Z,21.60
2018-11-01T05:53:23.544Z,21.59
2018-11-01T05:55:51.672Z,21.57
2018-11-01T05:58:19.747Z,21.55
2018-11-01T06:00:47.829Z,21.54
2018-11-01T06:03:15.920Z,21.53
2018-11-01T06:05:44.083Z,21.52
2018-11-01T06:08:28.173Z,21.50
2018-11-01T06:10:56.361Z,21.48
2018-11-01T06:13:24.449Z,21.47
2018-11-01T06:15:52.642Z,21.46
2018-11-01T06:18:20.969Z,21.44
2018-11-01T06:20:49.405Z,21.43
2018-11-01T06:23:17.662Z,21.41
2018-11-01T06:25:45.883Z,21.40
2018-11-01T06:28:13.986Z,21.38
2018-11-01T06:30:42.048Z,21.38
2018-11-01T06:33:10.132Z,21.37
2018-11-01T06:35:39.988Z,21.37
2018-11-01T06:38:08.101Z,21.34
2018-11-01T06:40:36.192Z,21.33
2018-11-01T06:43:04.316Z,21.33
2018-11-01T06:45:32.392Z,21.33
2018-11-01T06:48:00.491Z,21.33
2018-11-01T06:50:28.549Z,21.32
2018-11-01T06:52:56.652Z,21.30
2018-11-01T06:55:24.740Z,21.32
2018-11-01T06:57:52.956Z,21.31
2018-11-01T07:00:21.256Z,21.31
2018-11-01T07:02:49.536Z,21.31
2018-11-01T07:05:17.759Z,21.32
2018-11-01T07:07:46.734Z,21.30
2018-11-01T07:10:15.944Z,21.31
2018-11-01T07:12:44.461Z,21.30
2018-11-01T07:15:14.083Z,21.29
2018-11-01T07:17:42.723Z,21.29
2018-11-01T07:20:11.996Z,21.29
2018-11-01T07:22:40.683Z,21.29
2018-11-01T07:25:10.455Z,21.28
2018-11-01T07:27:38.536Z,21.28
2018-11-01T07:30:09.753Z,21.28
2018-11-01T07:32:38.016Z,21.28
2018-11-01T07:35:06.504Z,21.28
2018-11-01T07:37:34.793Z,21.28
2018-11-01T07:40:02.930Z,21.28
2018-11-01T07:42:31.233Z,21.29
2018-11-01T07:44:59.350Z,21.30
2018-11-01T07:47:27.424Z,21.30
2018-11-01T07:49:55.512Z,21.33
2018-11-01T07:52:24.077Z,21.32
2018-11-01T07:54:52.132Z,21.35
2018-11-01T07:57:20.184Z,21.37
2018-11-01T07:59:48.265Z,21.38
2018-11-01T08:02:16.328Z,21.41
2018-11-01T08:04:44.413Z,21.42
2018-11-01T08:07:12.484Z,21.43
2018-11-01T08:09:40.572Z,21.45
2018-11-01T08:12:08.622Z,21.46
2018-11-01T08:14:36.729Z,21.48
2018-11-01T08:17:05.253Z,21.49
2018-11-01T08:19:33.345Z,21.51
2018-11-01T08:22:01.364Z,21.52
2018-11-01T08:24:29.448Z,21.52
2018-11-01T08:26:57.499Z,21.51
2018-11-01T08:29:25.576Z,21.54
2018-11-01T08:31:53.664Z,21.55
2018-11-01T08:34:21.764Z,21.07
2018-11-01T08:36:49.888Z,20.41
2018-11-01T08:39:17.991Z,20.16
2018-11-01T08:41:46.317Z,19.86
2018-11-01T08:44:14.433Z,19.97
2018-11-01T08:46:43.400Z,20.54
2018-11-01T08:49:11.518Z,20.80
2018-11-01T08:51:39.613Z,20.95
2018-11-01T08:54:07.704Z,21.06
2018-11-01T08:56:35.976Z,21.13
2018-11-01T08:59:04.100Z,21.18
2018-11-01T09:01:32.263Z,21.23
2018-11-01T09:04:00.421Z,21.27
2018-11-01T09:06:29.288Z,21.32
2018-11-01T09:08:57.397Z,21.37
2018-11-01T09:11:25.518Z,21.40
2018-11-01T09:13:53.628Z,21.45
2018-11-01T09:16:21.773Z,21.50
2018-11-01T09:18:49.876Z,21.56
2018-11-01T09:21:17.944Z,21.58
2018-11-01T09:23:46.048Z,21.66
2018-11-01T09:26:14.155Z,21.71
2018-11-01T09:28:42.304Z,21.77
2018-11-01T09:31:10.380Z,21.82
2018-11-01T09:33:38.433Z,21.85
2018-11-01T09:36:06.492Z,21.92
2018-11-01T09:38:34.613Z,21.94
2018-11-01T09:41:02.732Z,22.00
2018-11-01T09:43:30.828Z,22.04
2018-11-01T09:45:59.047Z,22.09
2018-11-01T09:48:27.095Z,22.14
2018-11-01T09:50:55.168Z,22.20
2018-11-01T09:53:23.273Z,22.25
2018-11-01T09:55:51.964Z,22.29
2018-11-01T09:58:19.899Z,22.34
2018-11-01T10:00:47.985Z,22.39
2018-11-01T10:03:16.045Z,22.44
2018-11-01T10:05:44.132Z,22.49
2018-11-01T10:08:12.229Z,22.54
2018-11-01T10:10:40.392Z,22.58
2018-11-01T10:13:08.553Z,22.62
2018-11-01T10:15:36.685Z,22.68
2018-11-01T10:18:05.351Z,22.73
2018-11-01T10:20:32.911Z,22.75
2018-11-01T10:23:01.079Z,22.81
2018-11-01T10:25:29.271Z,22.86
2018-11-01T10:27:57.259Z,22.92
2018-11-01T10:30:25.358Z,22.98
2018-11-01T10:32:53.420Z,23.04
2018-11-01T10:35:21.552Z,23.09
2018-11-01T10:37:49.666Z,23.15
2018-11-01T10:40:19.051Z,23.18
2018-11-01T10:42:47.124Z,23.24
2018-11-01T10:45:15.365Z,23.29
2018-11-01T10:47:43.793Z,23.35
2018-11-01T10:50:16.228Z,23.42
2018-11-01T10:52:44.335Z,23.47
2018-11-01T10:55:12.937Z,23.53
2018-11-01T10:57:41.098Z,23.59
2018-11-01T11:00:15.891Z,23.65
2018-11-01T11:02:46.145Z,23.70
2018-11-01T11:05:14.901Z,23.74
2018-11-01T11:07:43.067Z,23.80
2018-11-01T11:10:11.177Z,23.84
2018-11-01T11:12:39.344Z,23.88
2018-11-01T11:15:07.980Z,23.94
2018-11-01T11:17:36.025Z,23.97
2018-11-01T11:20:04.328Z,24.02
2018-11-01T11:22:32.440Z,24.06
2018-11-01T11:25:00.532Z,24.08
2018-11-01T11:27:28.588Z,24.12
2018-11-01T11:29:56.759Z,24.15
2018-11-01T11:32:24.899Z,24.18
2018-11-01T11:34:52.985Z,24.22
2018-11-01T11:37:21.111Z,24.25
2018-11-01T11:39:49.411Z,24.25
2018-11-01T11:42:17.352Z,24.29
2018-11-01T11:44:45.448Z,24.32
2018-11-01T11:47:13.585Z,24.38
2018-11-01T11:49:41.652Z,24.40
2018-11-01T11:52:09.744Z,24.41
2018-11-01T11:54:37.816Z,24.44
2018-11-01T11:57:06.043Z,24.50
2018-11-01T11:59:34.028Z,24.51
2018-11-01T12:02:02.124Z,24.56
2018-11-01T12:04:30.188Z,24.56
2018-11-01T12:06:58.412Z,24.59
2018-11-01T12:09:26.844Z,24.62
2018-11-01T12:11:55.113Z,24.65
2018-11-01T12:14:23.373Z,24.67
2018-11-01T12:16:51.459Z,24.72
2018-11-01T12:19:19.527Z,24.73
2018-11-01T12:21:47.614Z,24.76
2018-11-01T12:24:15.693Z,24.78
2018-11-01T12:26:43.764Z,24.81
2018-11-01T12:29:11.832Z,24.83
2018-11-01T12:31:40.463Z,24.84
2018-11-01T12:34:08.565Z,24.87
2018-11-01T12:36:36.616Z,24.88
2018-11-01T12:39:06.618Z,24.91
2018-11-01T12:41:34.748Z,24.91
2018-11-01T12:44:02.743Z,24.93
2018-11-01T12:46:30.780Z,24.95
2018-11-01T12:48:58.848Z,24.97
2018-11-01T12:51:26.905Z,24.99
2018-11-01T12:53:55.139Z,25.00
2018-11-01T12:56:23.253Z,25.01
2018-11-01T12:58:51.240Z,25.02
2018-11-01T13:01:19.324Z,25.04
2018-11-01T13:03:47.380Z,25.06
2018-11-01T13:06:15.480Z,25.05
2018-11-01T13:08:43.533Z,25.07
2018-11-01T13:11:11.595Z,25.09
2018-11-01T13:13:39.648Z,25.10
2018-11-01T13:16:07.733Z,25.11
2018-11-01T13:18:36.791Z,25.11
2018-11-01T13:21:05.035Z,25.12
2018-11-01T13:23:33.161Z,25.12
2018-11-01T13:26:01.217Z,25.12
2018-11-01T13:28:29.260Z,25.12
2018-11-01T13:30:57.352Z,25.12
2018-11-01T13:33:25.453Z,25.14
2018-11-01T13:35:53.536Z,25.14
2018-11-01T13:38:21.700Z,25.14
2018-11-01T13:40:50.060Z,25.14
2018-11-01T13:43:17.835Z,25.14
2018-11-01T13:45:45.888Z,25.13
2018-11-01T13:48:14.169Z,25.12
2018-11-01T13:50:42.128Z,25.11
2018-11-01T13:53:10.217Z,25.11
2018-11-01T13:55:38.296Z,25.10
2018-11-01T13:58:06.354Z,25.09
2018-11-01T14:00:34.444Z,25.09
2018-11-01T14:03:02.657Z,25.09
2018-11-01T14:05:30.811Z,25.09
2018-11-01T14:07:59.041Z,25.08
2018-11-01T14:10:27.093Z,25.06
2018-11-01T14:12:55.212Z,25.05
2018-11-01T14:15:23.792Z,25.05
2018-11-01T14:17:51.379Z,25.03
2018-11-01T14:20:19.436Z,25.02
2018-11-01T14:22:47.480Z,25.01
2018-11-01T14:25:15.621Z,25.02
2018-11-01T14:27:43.742Z,25.00
2018-11-01T14:30:14.016Z,25.00
2018-11-01T14:32:42.148Z,24.98
2018-11-01T14:35:10.892Z,24.96
2018-11-01T14:37:39.006Z,24.96
2018-11-01T14:40:08.664Z,24.94
2018-11-01T14:42:36.747Z,24.94
2018-11-01T14:45:04.984Z,24.90
2018-11-01T14:47:33.076Z,24.88
2018-11-01T14:50:01.176Z,24.88
2018-11-01T14:52:29.611Z,24.86
2018-11-01T14:54:58.532Z,24.83
2018-11-01T14:57:26.481Z,24.81
2018-11-01T14:59:53.969Z,24.80
2018-11-01T15:02:21.555Z,24.78
2018-11-01T15:04:49.668Z,24.77
2018-11-01T15:07:18.597Z,24.75
2018-11-01T15:09:46.640Z,24.72
2018-11-01T15:12:14.696Z,24.71
2018-11-01T15:14:43.292Z,24.67
2018-11-01T15:17:12.088Z,24.66
2018-11-01T15:19:40.183Z,24.65
2018-11-01T15:22:08.237Z,24.62
2018-11-01T15:24:36.289Z,24.60
2018-11-01T15:27:04.352Z,24.57
2018-11-01T15:29:32.408Z,24.54
2018-11-01T15:32:03.396Z,24.52
2018-11-01T15:34:32.209Z,24.52
2018-11-01T15:37:00.411Z,24.49
2018-11-01T15:39:28.477Z,24.48
2018-11-01T15:41:56.552Z,24.47
2018-11-01T15:44:24.628Z,24.46
2018-11-01T15:46:52.729Z,24.46
2018-11-01T15:49:20.804Z,24.45
2018-11-01T15:51:48.927Z,24.44
2018-11-01T15:54:16.951Z,24.41
2018-11-01T15:56:45.090Z,24.38
2018-11-01T15:59:13.144Z,24.32
2018-11-01T16:01:41.285Z,24.29
2018-11-01T16:04:09.382Z,24.23
2018-11-01T16:06:37.413Z,24.23
2018-11-01T16:09:08.748Z,24.22
2018-11-01T16:11:36.836Z,24.20
2018-11-01T16:14:04.932Z,24.21
2018-11-01T16:16:33.020Z,24.21
2018-11-01T16:19:01.080Z,24.19
2018-11-01T16:21:29.149Z,24.19
2018-11-01T16:23:57.216Z,24.18
2018-11-01T16:26:25.279Z,24.19
2018-11-01T16:28:53.336Z,24.17
2018-11-01T16:31:21.432Z,24.17
2018-11-01T16:33:49.548Z,24.16
2018-11-01T16:36:17.675Z,24.17
2018-11-01T16:38:45.773Z,24.16
2018-11-01T16:41:13.856Z,24.16
2018-11-01T16:43:41.972Z,24.16
2018-11-01T16:46:10.073Z,24.17
2018-11-01T16:48:38.143Z,24.20
2018-11-01T16:51:06.361Z,24.22
2018-11-01T16:53:34.408Z,24.26
2018-11-01T16:56:03.073Z,24.30
2018-11-01T16:58:31.144Z,24.34
2018-11-01T17:00:59.240Z,24.38
2018-11-01T17:03:27.329Z,24.42
2018-11-01T17:05:55.392Z,24.46
2018-11-01T17:08:25.776Z,24.50
2018-11-01T17:10:53.821Z,24.54
2018-11-01T17:13:21.888Z,24.61
2018-11-01T17:15:49.945Z,24.63
2018-11-01T17:18:18.057Z,24.67
2018-11-01T17:20:46.144Z,24.72
2018-11-01T17:23:14.208Z,24.75
2018-11-01T17:25:42.340Z,24.79
2018-11-01T17:28:10.425Z,24.84
2018-11-01T17:30:38.480Z,24.86
2018-11-01T17:33:06.723Z,24.89
2018-11-01T17:35:34.775Z,24.93
2018-11-01T17:38:02.861Z,24.97
2018-11-01T17:40:30.945Z,25.02
2018-11-01T17:42:58.996Z,25.05
2018-11-01T17:45:27.075Z,25.08
2018-11-01T17:47:55.332Z,25.09
2018-11-01T17:50:23.521Z,25.11
2018-11-01T17:52:51.801Z,25.12
2018-11-01T17:55:20.052Z,25.14
2018-11-01T17:57:48.060Z,25.15
2018-11-01T18:00:16.465Z,25.15
2018-11-01T18:02:44.653Z,25.17
2018-11-01T18:05:13.019Z,25.16
2018-11-01T18:07:41.389Z,25.19
2018-11-01T18:10:10.643Z,25.20
2018-11-01T18:12:38.695Z,25.23
2018-11-01T18:15:07.341Z,25.25
2018-11-01T18:17:35.425Z,25.26
2018-11-01T18:20:03.589Z,25.27
2018-11-01T18:22:31.685Z,25.27
2018-11-01T18:24:59.775Z,25.29
2018-11-01T18:27:28.264Z,25.29
2018-11-01T18:29:56.384Z,25.30
2018-11-01T18:32:24.486Z,25.31
2018-11-01T18:34:52.565Z,25.29
2018-11-01T18:37:20.636Z,25.30
2018-11-01T18:39:48.737Z,25.32
2018-11-01T18:42:16.857Z,25.27
2018-11-01T18:44:45.324Z,25.22
2018-11-01T18:47:13.387Z,25.22
2018-11-01T18:49:41.464Z,25.20
2018-11-01T18:52:09.525Z,25.21
2018-11-01T18:54:37.691Z,25.20
2018-11-01T18:57:05.838Z,25.18
2018-11-01T18:59:33.995Z,25.16
2018-11-01T19:02:01.974Z,25.16
2018-11-01T19:04:30.038Z,25.12
2018-11-01T19:06:58.253Z,25.11
2018-11-01T19:09:26.340Z,25.10
2018-11-01T19:11:54.460Z,25.08
2018-11-01T19:14:22.626Z,25.06
2018-11-01T19:16:50.642Z,25.06
2018-11-01T19:19:18.794Z,25.07
2018-11-01T19:21:46.930Z,25.07
2018-11-01T19:24:15.011Z,25.08
2018-11-01T19:26:43.192Z,25.09
2018-11-01T19:29:11.185Z,25.08
2018-11-01T19:31:39.320Z,25.08
2018-11-01T19:34:07.766Z,25.06
2018-11-01T19:36:35.708Z,25.06
2018-11-01T19:39:05.292Z,25.05
2018-11-01T19:41:33.344Z,25.05
2018-11-01T19:44:01.429Z,25.04
2018-11-01T19:46:29.497Z,25.03
2018-11-01T19:48:57.608Z,25.02
2018-11-01T19:51:25.696Z,25.02
2018-11-01T19:53:53.893Z,25.00
2018-11-01T19:56:21.876Z,25.00
2018-11-01T19:58:50.466Z,24.99
2018-11-01T20:01:18.609Z,24.98
2018-11-01T20:03:46.744Z,24.97
2018-11-01T20:06:14.909Z,24.97
2018-11-01T20:08:43.011Z,24.95
2018-11-01T20:11:11.009Z,24.95
2018-11-01T20:13:39.060Z,24.92
2018-11-01T20:16:07.170Z,24.89
2018-11-01T20:18:35.256Z,24.85
2018-11-01T20:21:03.280Z,24.83
2018-11-01T20:23:31.344Z,24.81
2018-11-01T20:25:59.440Z,24.80
2018-11-01T20:28:27.516Z,24.77
2018-11-01T20:30:55.621Z,24.76
2018-11-01T20:33:23.740Z,24.74
2018-11-01T20:35:51.861Z,24.72
2018-11-01T20:38:20.003Z,24.73
2018-11-01T20:40:48.040Z,24.70
2018-11-01T20:43:16.172Z,24.68
2018-11-01T20:45:44.280Z,24.66
2018-11-01T20:48:12.440Z,24.64
2018-11-01T20:50:40.509Z,24.64
2018-11-01T20:53:08.580Z,24.63
2018-11-01T20:55:36.653Z,24.60
2018-11-01T20:58:04.805Z,24.59
2018-11-01T21:00:32.889Z,24.56
2018-11-01T21:03:01.094Z,24.56
2018-11-01T21:05:29.164Z,24.54
2018-11-01T21:07:57.229Z,24.52
2018-11-01T21:10:25.301Z,24.52
2018-11-01T21:12:53.801Z,24.50
2018-11-01T21:15:21.909Z,24.50
2018-11-01T21:17:50.012Z,24.50
2018-11-01T21:20:18.121Z,24.48
2018-11-01T21:22:46.188Z,24.47
2018-11-01T21:25:14.252Z,24.44
2018-11-01T21:27:42.364Z,24.44
2018-11-01T21:30:10.601Z,24.43
2018-11-01T21:32:38.733Z,24.43
2018-11-01T21:35:07.197Z,24.42
2018-11-01T21:37:35.325Z,24.41
2018-11-01T21:40:03.677Z,24.39
2018-11-01T21:42:31.752Z,24.40
2018-11-01T21:44:59.816Z,24.41
2018-11-01T21:47:27.861Z,24.39
2018-11-01T21:49:55.919Z,24.39
2018-11-01T21:52:23.989Z,24.38
2018-11-01T21:54:52.048Z,24.38
2018-11-01T21:57:20.190Z,24.37
2018-11-01T21:59:48.342Z,24.35
2018-11-01T22:02:17.208Z,24.34
2018-11-01T22:04:45.323Z,24.34
2018-11-01T22:07:13.430Z,24.33
2018-11-01T22:09:41.691Z,24.30
2018-11-01T22:12:09.841Z,24.30
2018-11-01T22:14:38.016Z,24.29
2018-11-01T22:17:06.608Z,24.27
2018-11-01T22:19:34.669Z,24.27
2018-11-01T22:22:02.815Z,24.27
2018-11-01T22:24:30.904Z,24.25
2018-11-01T22:32:01.964Z,24.19
2018-11-01T22:34:30.075Z,24.17
2018-11-01T22:36:58.141Z,24.16
2018-11-01T22:39:26.245Z,24.16
2018-11-01T22:41:54.365Z,24.14
2018-11-01T22:44:22.420Z,24.14
2018-11-01T22:46:50.601Z,24.13
2018-11-01T22:49:18.688Z,24.11
2018-11-01T22:51:46.829Z,24.09
2018-11-01T22:54:14.823Z,24.09
2018-11-01T22:56:42.976Z,24.07
2018-11-01T22:59:11.046Z,24.07
2018-11-01T23:01:39.944Z,24.06
2018-11-01T23:04:08.000Z,24.05
2018-11-01T23:06:36.043Z,24.04
2018-11-01T23:09:05.372Z,24.03
2018-11-01T23:11:33.429Z,24.02
2018-11-01T23:14:01.485Z,24.02
2018-11-01T23:16:29.544Z,24.01
2018-11-01T23:18:58.216Z,23.98
2018-11-01T23:21:26.272Z,23.98
2018-11-01T23:23:54.336Z,23.96
2018-11-01T23:26:22.478Z,23.97
2018-11-01T23:28:50.448Z,23.96
2018-11-01T23:31:18.492Z,23.95
2018-11-01T23:33:46.621Z,23.93
2018-11-01T23:36:13.893Z,23.92
2018-11-01T23:38:47.492Z,23.91
2018-11-01T23:41:20.904Z,23.91
2018-11-01T23:43:54.502Z,23.90
2018-11-01T23:46:27.993Z,23.89
2018-11-01T23:49:00.803Z,23.87
2018-11-01T23:51:28.863Z,23.86
2018-11-01T23:53:56.912Z,23.84
2018-11-01T23:56:24.989Z,23.83
2018-11-01T23:58:53.305Z,23.83
